Time;durP1;ratioP1;P1;durP2;ratioP2;P2;SDS_P1;SDS_P2;PMS_P1;PMS_P2;Temp;Humidity;BMP_temperature;BMP_pressure;BME280_temperature;BME280_humidity;BME280_pressure;Samples;Min_cycle;Max_cycle;Signal;HPM_P1;HPM_P2
2023/01/25 00:02:02;;;;;;;19.05;10.63;;;19.80;55.60;;;;;;5048617;28;20047;-74
2023/01/25 00:04:28;;;;;;;23.73;12.43;;;19.70;55.40;;;;;;5050446;28;20045;-77
2023/01/25 00:06:54;;;;;;;20.08;11.88;;;19.70;54.90;;;;;;5031479;28;20025;-71
2023/01/25 00:09:20;;;;;;;21.20;12.07;;;19.60;52.20;;;;;;5041395;28;20030;-72
2023/01/25 00:11:47;;;;;;;19.25;11.05;;;19.50;51.50;;;;;;5041531;28;20021;-72
2023/01/25 00:14:14;;;;;;;17.58;10.70;;;19.50;52.90;;;;;;5048568;28;20055;-72
2023/01/25 00:16:40;;;;;;;19.50;10.73;;;19.50;53.70;;;;;;5030607;28;20033;-71
2023/01/25 00:19:07;;;;;;;19.00;10.57;;;19.50;54.00;;;;;;5044042;28;20067;-72
2023/01/25 00:21:33;;;;;;;18.98;11.13;;;19.40;53.90;;;;;;5049790;28;20485;-72
2023/01/25 00:24:00;;;;;;;18.33;10.32;;;19.50;54.00;;;;;;5049676;28;20029;-72
2023/01/25 00:26:26;;;;;;;16.58;10.05;;;19.50;54.10;;;;;;5043278;28;20037;-71
2023/01/25 00:28:53;;;;;;;19.60;10.35;;;19.50;54.10;;;;;;5048263;28;20028;-72
2023/01/25 00:31:32;;;;;;;19.30;10.27;;;19.50;54.20;;;;;;5032004;28;20547;-71
2023/01/25 00:34:25;;;;;;;17.30;9.18;;;19.50;54.20;;;;;;5048303;28;20029;-72
2023/01/25 00:36:55;;;;;;;17.65;10.38;;;19.50;54.30;;;;;;5047965;28;20025;-71
2023/01/25 00:39:22;;;;;;;17.88;9.73;;;19.50;54.30;;;;;;5048020;28;20443;-71
2023/01/25 00:41:48;;;;;;;19.33;9.55;;;19.50;54.30;;;;;;5047160;28;20063;-72
2023/01/25 00:44:13;;;;;;;16.55;10.05;;;19.50;54.30;;;;;;5047349;28;20037;-71
2023/01/25 00:46:40;;;;;;;15.45;9.27;;;19.50;54.90;;;;;;5047709;28;20029;-71
2023/01/25 00:49:06;;;;;;;15.43;8.85;;;19.40;54.30;;;;;;5049517;28;20397;-72
2023/01/25 00:51:32;;;;;;;17.50;9.05;;;19.40;54.30;;;;;;5049030;28;20060;-71
2023/01/25 00:53:58;;;;;;;15.23;9.25;;;19.40;54.40;;;;;;5031415;28;20025;-71
2023/01/25 00:56:24;;;;;;;15.60;9.23;;;19.40;54.40;;;;;;5047330;28;20052;-71
2023/01/25 00:58:50;;;;;;;14.02;8.73;;;19.50;54.50;;;;;;5011613;28;20037;-72
2023/01/25 01:01:17;;;;;;;13.80;9.05;;;19.40;54.40;;;;;;5017352;28;20473;-72
2023/01/25 01:03:43;;;;;;;14.90;8.88;;;19.40;54.50;;;;;;5065864;23;20493;-73
2023/01/25 01:06:11;;;;;;;14.23;9.10;;;19.40;54.40;;;;;;5049873;28;20071;-72
2023/01/25 01:08:41;;;;;;;15.23;8.55;;;19.40;54.40;;;;;;5060408;28;20452;-72
2023/01/25 01:11:10;;;;;;;13.60;8.60;;;19.40;54.40;;;;;;5063944;28;20028;-72
2023/01/25 01:13:38;;;;;;;14.32;8.98;;;19.50;54.50;;;;;;5067357;28;20031;-72
2023/01/25 01:16:07;;;;;;;14.60;8.52;;;19.50;54.50;;;;;;5066459;28;20108;-73
2023/01/25 01:18:38;;;;;;;13.52;8.20;;;19.40;54.50;;;;;;5061514;28;20025;-72
2023/01/25 01:21:04;;;;;;;13.90;8.00;;;19.40;54.50;;;;;;5047568;28;20101;-72
2023/01/25 01:23:31;;;;;;;15.52;8.75;;;19.40;55.00;;;;;;5066891;28;20071;-73
2023/01/25 01:26:05;;;;;;;14.27;8.65;;;19.40;54.40;;;;;;5050575;28;20033;-72
2023/01/25 01:28:33;;;;;;;14.52;8.73;;;19.40;54.30;;;;;;5064195;28;20384;-72
2023/01/25 01:31:04;;;;;;;15.65;8.90;;;19.40;54.40;;;;;;5066783;28;20366;-73
2023/01/25 01:33:34;;;;;;;13.88;8.00;;;19.40;54.30;;;;;;5046894;28;20496;-72
2023/01/25 01:36:07;;;;;;;14.32;8.32;;;19.40;54.30;;;;;;5066982;28;20044;-72
2023/01/25 01:38:33;;;;;;;14.05;8.57;;;19.40;54.40;;;;;;5049488;28;20024;-72
2023/01/25 01:41:00;;;;;;;14.70;8.63;;;19.40;54.30;;;;;;5066537;28;20040;-72
2023/01/25 01:43:25;;;;;;;12.98;7.85;;;19.40;54.40;;;;;;5066175;28;20111;-72
2023/01/25 01:45:59;;;;;;;14.82;8.15;;;19.40;54.40;;;;;;5065855;28;20055;-73
2023/01/25 01:48:50;;;;;;;13.27;8.48;;;19.40;54.40;;;;;;5067197;28;20049;-72
2023/01/25 01:51:32;;;;;;;13.75;8.68;;;19.40;54.40;;;;;;5065637;28;20534;-73
2023/01/25 01:54:09;;;;;;;13.75;8.00;;;19.40;54.40;;;;;;5066422;28;20025;-72
2023/01/25 01:56:44;;;;;;;13.82;7.68;;;19.40;54.50;;;;;;5053456;28;20111;-73
2023/01/25 01:59:11;;;;;;;13.35;8.30;;;19.40;54.40;;;;;;5062121;28;20091;-72
2023/01/25 02:01:39;;;;;;;11.63;7.53;;;19.40;54.50;;;;;;5051036;28;20481;-72
2023/01/25 02:04:07;;;;;;;14.10;8.35;;;19.40;54.40;;;;;;5046589;28;20036;-72
2023/01/25 02:06:52;;;;;;;14.38;7.43;;;19.40;54.40;;;;;;5053924;28;20044;-73
2023/01/25 02:09:21;;;;;;;10.40;6.97;;;19.40;54.50;;;;;;5071780;28;20484;-73
2023/01/25 02:11:49;;;;;;;11.93;7.85;;;19.40;54.50;;;;;;5070166;28;20116;-73
2023/01/25 02:14:16;;;;;;;12.90;7.72;;;19.40;54.50;;;;;;5069701;28;20021;-72
2023/01/25 02:16:43;;;;;;;12.25;7.43;;;19.40;54.40;;;;;;5052646;28;20492;-73
2023/01/25 02:19:20;;;;;;;13.57;7.90;;;19.40;54.40;;;;;;5069917;28;20054;-72
2023/01/25 02:21:47;;;;;;;13.80;7.95;;;19.40;54.40;;;;;;5053442;28;20098;-73
2023/01/25 02:24:22;;;;;;;13.68;7.75;;;19.40;54.30;;;;;;5055292;28;20064;-72
2023/01/25 02:26:48;;;;;;;11.93;7.55;;;19.40;54.30;;;;;;5068217;28;20086;-72
2023/01/25 02:29:15;;;;;;;13.70;8.02;;;19.40;54.30;;;;;;5069686;28;20032;-73
2023/01/25 02:31:44;;;;;;;13.38;7.55;;;19.40;54.20;;;;;;5069960;28;20408;-72
2023/01/25 02:34:10;;;;;;;11.55;7.13;;;19.40;54.30;;;;;;5067931;28;20013;-72
2023/01/25 02:36:39;;;;;;;12.20;7.53;;;19.40;54.30;;;;;;5055385;28;20032;-72
2023/01/25 02:39:09;;;;;;;12.35;7.60;;;19.40;54.30;;;;;;5069918;28;20153;-72
2023/01/25 02:41:42;;;;;;;12.43;7.18;;;19.40;54.30;;;;;;5053107;28;20784;-71
2023/01/25 02:44:22;;;;;;;12.48;7.82;;;19.40;54.30;;;;;;5069586;28;20432;-73
2023/01/25 02:46:47;;;;;;;13.23;7.33;;;19.30;54.30;;;;;;5068516;28;20401;-72
2023/01/25 02:49:14;;;;;;;12.35;7.53;;;19.30;54.30;;;;;;5069757;28;20370;-72
2023/01/25 02:51:43;;;;;;;13.25;8.02;;;19.40;54.30;;;;;;5070502;28;20034;-72
2023/01/25 02:54:12;;;;;;;11.07;7.00;;;19.30;54.30;;;;;;5056950;28;20036;-72
2023/01/25 02:56:41;;;;;;;11.77;7.25;;;19.40;54.30;;;;;;5051170;28;20408;-72
2023/01/25 02:59:08;;;;;;;13.68;7.38;;;19.40;54.70;;;;;;5070071;28;20412;-73
2023/01/25 03:01:37;;;;;;;10.77;7.00;;;19.30;54.30;;;;;;5069181;28;20029;-72
2023/01/25 03:04:04;;;;;;;11.95;6.93;;;19.30;54.20;;;;;;5052607;28;20036;-73
2023/01/25 03:06:31;;;;;;;12.27;7.18;;;19.30;54.30;;;;;;5050863;28;20028;-71
2023/01/25 03:08:57;;;;;;;11.50;6.72;;;19.30;54.30;;;;;;5052150;28;20036;-72
2023/01/25 03:11:22;;;;;;;11.93;6.90;;;19.30;54.30;;;;;;5068947;28;20025;-72
2023/01/25 03:13:50;;;;;;;10.50;6.90;;;19.30;54.30;;;;;;5037136;28;20059;-72
2023/01/25 03:16:17;;;;;;;10.98;6.90;;;19.30;54.30;;;;;;5041971;28;20064;-72
2023/01/25 03:18:44;;;;;;;12.55;7.30;;;19.30;54.30;;;;;;5069134;28;20039;-73
2023/01/25 03:21:13;;;;;;;12.65;7.45;;;19.30;54.30;;;;;;5069420;28;20044;-73
2023/01/25 03:23:39;;;;;;;11.65;6.63;;;19.30;54.20;;;;;;5069497;28;20088;-72
2023/01/25 03:26:10;;;;;;;11.68;7.50;;;19.30;54.20;;;;;;5068786;28;20401;-72
2023/01/25 03:28:40;;;;;;;10.55;7.22;;;19.30;54.20;;;;;;5068022;28;20464;-72
2023/01/25 03:31:08;;;;;;;11.30;7.10;;;19.30;54.20;;;;;;5068367;28;20075;-73
2023/01/25 03:33:34;;;;;;;12.40;7.75;;;19.40;54.30;;;;;;5053660;28;20047;-72
2023/01/25 03:36:00;;;;;;;11.30;7.25;;;19.30;54.20;;;;;;5049985;28;20076;-73
2023/01/25 03:38:27;;;;;;;11.95;6.75;;;19.30;54.10;;;;;;5067490;28;20094;-72
2023/01/25 03:40:53;;;;;;;12.20;7.30;;;19.30;54.20;;;;;;5051823;28;20478;-72
2023/01/25 03:43:19;;;;;;;10.90;7.03;;;19.30;54.20;;;;;;5051601;28;20064;-73
2023/01/25 03:45:53;;;;;;;11.18;6.97;;;19.30;54.20;;;;;;5068106;28;20505;-73
2023/01/25 03:48:20;;;;;;;13.27;7.15;;;19.30;54.20;;;;;;5051676;28;20033;-72
2023/01/25 03:50:51;;;;;;;11.27;7.22;;;19.30;54.20;;;;;;5059422;28;20116;-72
2023/01/25 03:53:28;;;;;;;10.32;7.30;;;19.30;54.20;;;;;;5074636;28;20033;-72
2023/01/25 03:56:00;;;;;;;11.98;7.32;;;19.30;54.20;;;;;;5066893;28;20024;-72
2023/01/25 03:58:27;;;;;;;11.10;6.95;;;19.30;54.20;;;;;;5054621;28;20037;-73
2023/01/25 04:00:56;;;;;;;9.82;6.40;;;19.30;54.10;;;;;;5047411;28;20029;-72
2023/01/25 04:03:22;;;;;;;12.07;7.72;;;19.30;54.30;;;;;;5048558;28;20037;-72
2023/01/25 04:05:48;;;;;;;10.50;6.70;;;19.30;54.20;;;;;;5048857;28;20128;-72
2023/01/25 04:08:14;;;;;;;10.10;6.60;;;19.30;54.20;;;;;;5049168;28;20104;-72
2023/01/25 04:10:40;;;;;;;11.60;7.18;;;19.30;54.80;;;;;;5062623;28;20024;-72
2023/01/25 04:13:07;;;;;;;10.68;7.07;;;19.30;54.20;;;;;;5067306;28;20410;-72
2023/01/25 04:15:34;;;;;;;10.32;6.95;;;19.30;54.20;;;;;;5048013;28;20094;-72
2023/01/25 04:18:08;;;;;;;11.43;7.30;;;19.30;54.20;;;;;;5048581;28;20059;-72
2023/01/25 04:20:34;;;;;;;10.32;6.70;;;19.30;54.10;;;;;;5048013;28;20021;-73
2023/01/25 04:23:00;;;;;;;13.93;7.20;;;19.30;54.20;;;;;;5048580;28;20511;-72
2023/01/25 04:25:33;;;;;;;11.63;6.95;;;19.30;54.20;;;;;;5042944;28;20272;-73
2023/01/25 04:27:59;;;;;;;11.75;7.22;;;19.30;54.20;;;;;;5068809;28;20033;-72
2023/01/25 04:30:26;;;;;;;11.48;7.18;;;19.30;54.10;;;;;;5067635;28;20046;-72
2023/01/25 04:32:52;;;;;;;10.15;6.97;;;19.30;54.10;;;;;;5067085;28;20025;-72
2023/01/25 04:35:23;;;;;;;11.07;7.55;;;19.30;54.10;;;;;;5065145;28;20409;-72
2023/01/25 04:37:56;;;;;;;11.77;6.78;;;19.30;54.10;;;;;;5048952;28;20029;-73
2023/01/25 04:40:25;;;;;;;10.30;6.97;;;19.30;54.10;;;;;;5059601;28;20648;-73
2023/01/25 04:42:51;;;;;;;11.18;7.13;;;19.30;54.10;;;;;;5066756;28;20039;-73
2023/01/25 04:45:17;;;;;;;10.70;6.85;;;19.30;54.10;;;;;;5066992;28;20036;-72
2023/01/25 04:47:43;;;;;;;10.75;7.00;;;19.30;54.10;;;;;;5067209;28;20033;-72
2023/01/25 04:50:09;;;;;;;11.13;6.75;;;19.30;54.10;;;;;;5067469;28;20033;-72
2023/01/25 04:52:35;;;;;;;12.90;7.05;;;19.30;54.10;;;;;;5049411;28;20477;-72
2023/01/25 04:55:01;;;;;;;11.75;7.20;;;19.30;54.10;;;;;;5066953;28;20037;-72
2023/01/25 04:57:30;;;;;;;9.83;6.33;;;19.30;54.10;;;;;;5033684;28;20532;-72
2023/01/25 04:59:56;;;;;;;10.70;6.63;;;19.30;54.10;;;;;;5042061;28;20342;-72
2023/01/25 05:02:23;;;;;;;10.95;7.03;;;19.30;54.30;;;;;;5067295;28;20040;-72
2023/01/25 05:04:48;;;;;;;11.23;6.60;;;19.30;54.10;;;;;;5065269;28;20230;-72
2023/01/25 05:07:15;;;;;;;9.68;6.57;;;19.30;54.00;;;;;;5038715;28;20021;-72
2023/01/25 05:09:41;;;;;;;10.65;6.75;;;19.30;54.00;;;;;;5049127;28;20025;-72
2023/01/25 05:12:10;;;;;;;12.05;7.10;;;19.30;54.10;;;;;;5064929;28;20036;-72
2023/01/25 05:14:48;;;;;;;10.77;6.72;;;19.30;54.00;;;;;;5066389;28;20031;-72
2023/01/25 05:17:15;;;;;;;10.75;6.90;;;19.30;54.00;;;;;;5066094;28;20021;-72
2023/01/25 05:19:41;;;;;;;11.45;7.13;;;19.40;54.10;;;;;;5065520;28;20572;-72
2023/01/25 05:22:14;;;;;;;9.55;6.45;;;19.40;54.00;;;;;;5056001;28;20036;-72
2023/01/25 05:24:44;;;;;;;10.88;6.75;;;19.40;54.00;;;;;;5048407;28;20044;-72
2023/01/25 05:27:13;;;;;;;11.45;7.13;;;19.40;54.00;;;;;;5051076;28;20480;-72
2023/01/25 05:29:55;;;;;;;10.52;6.63;;;19.40;54.00;;;;;;5063779;28;20078;-72
2023/01/25 05:32:29;;;;;;;12.23;6.88;;;19.40;54.00;;;;;;5056383;28;20024;-72
2023/01/25 05:34:55;;;;;;;9.95;6.50;;;19.40;53.90;;;;;;5061325;28;20417;-72
2023/01/25 05:37:21;;;;;;;11.23;7.18;;;19.40;54.00;;;;;;5059470;28;20033;-73
2023/01/25 05:39:55;;;;;;;11.65;7.72;;;19.40;53.90;;;;;;5082589;28;20397;-72
2023/01/25 05:42:23;;;;;;;8.77;6.43;;;19.40;54.50;;;;;;5049793;28;20032;-73
2023/01/25 05:44:49;;;;;;;11.43;6.97;;;19.40;53.90;;;;;;5045955;28;20033;-73
2023/01/25 05:47:16;;;;;;;9.57;6.43;;;19.40;53.90;;;;;;5056682;28;20520;-72
2023/01/25 05:49:43;;;;;;;8.68;5.93;;;19.40;53.90;;;;;;5066239;28;20025;-72
2023/01/25 05:52:15;;;;;;;10.27;6.80;;;19.40;53.90;;;;;;5066407;28;20029;-72
2023/01/25 05:54:42;;;;;;;10.50;6.75;;;19.40;53.90;;;;;;5049452;28;20044;-72
2023/01/25 05:57:09;;;;;;;9.80;6.28;;;19.40;53.90;;;;;;5065473;28;20029;-72
2023/01/25 05:59:35;;;;;;;11.32;7.03;;;19.40;53.90;;;;;;5062413;28;20025;-72
2023/01/25 06:02:05;;;;;;;10.93;6.75;;;19.30;53.90;;;;;;5066730;28;20123;-72
2023/01/25 06:04:31;;;;;;;10.98;6.65;;;19.40;54.00;;;;;;5033410;28;20036;-72
2023/01/25 06:06:57;;;;;;;10.07;6.55;;;19.40;53.90;;;;;;5043118;28;20045;-72
2023/01/25 06:09:23;;;;;;;9.10;6.25;;;19.40;53.90;;;;;;5056301;28;20032;-72
2023/01/25 06:11:50;;;;;;;11.65;6.72;;;19.40;53.90;;;;;;5049196;28;20782;-73
2023/01/25 06:14:16;;;;;;;10.35;6.60;;;19.30;53.90;;;;;;5066358;28;20067;-72
2023/01/25 06:16:42;;;;;;;10.80;6.68;;;19.30;53.90;;;;;;5047360;28;20041;-72
2023/01/25 06:19:44;;;;;;;9.50;6.50;;;19.30;53.80;;;;;;5064122;28;20033;-72
2023/01/25 06:22:21;;;;;;;10.65;6.70;;;19.40;53.90;;;;;;5053744;28;20047;-72
2023/01/25 06:24:46;;;;;;;9.77;6.43;;;19.40;53.90;;;;;;5048285;28;20045;-73
2023/01/25 06:27:12;;;;;;;8.80;6.03;;;19.40;53.90;;;;;;5064499;28;20052;-73
2023/01/25 06:29:38;;;;;;;10.57;6.68;;;19.40;53.90;;;;;;5065679;28;20036;-73
2023/01/25 06:32:04;;;;;;;9.93;6.38;;;19.40;53.90;;;;;;5052338;28;20025;-72
2023/01/25 06:34:30;;;;;;;11.15;6.95;;;19.40;53.90;;;;;;5054029;28;20064;-72
2023/01/25 06:36:56;;;;;;;10.10;5.95;;;19.40;53.80;;;;;;5055820;28;20125;-72
2023/01/25 06:39:22;;;;;;;10.18;6.43;;;19.40;53.80;;;;;;5056831;28;20060;-73
2023/01/25 06:41:48;;;;;;;10.63;6.40;;;19.40;53.80;;;;;;5064900;28;20036;-72
2023/01/25 06:44:14;;;;;;;10.05;6.82;;;19.40;53.90;;;;;;5053842;28;20335;-72
2023/01/25 06:46:39;;;;;;;10.23;6.47;;;19.40;53.80;;;;;;5059615;28;20075;-73
2023/01/25 06:49:05;;;;;;;12.00;6.70;;;19.40;53.80;;;;;;5070342;28;20051;-72
2023/01/25 06:51:31;;;;;;;11.13;6.45;;;19.40;53.80;;;;;;5070503;28;20488;-73
2023/01/25 06:54:00;;;;;;;11.38;6.57;;;19.40;53.90;;;;;;5069316;28;20134;-73
2023/01/25 06:56:26;;;;;;;10.45;6.40;;;19.30;53.80;;;;;;5061549;28;20025;-72
2023/01/25 06:58:52;;;;;;;11.52;6.50;;;19.30;53.80;;;;;;5066255;28;20024;-72
2023/01/25 07:01:19;;;;;;;10.48;6.32;;;19.30;53.80;;;;;;5064862;28;20493;-72
2023/01/25 07:03:52;;;;;;;10.85;6.68;;;19.40;53.90;;;;;;5068601;28;20036;-73
2023/01/25 07:06:18;;;;;;;8.82;6.43;;;19.30;53.80;;;;;;5060415;28;20527;-72
2023/01/25 07:08:44;;;;;;;9.50;6.38;;;19.40;53.90;;;;;;5067858;28;20048;-72
2023/01/25 07:11:12;;;;;;;11.10;6.93;;;19.40;53.80;;;;;;5061512;28;20111;-72
2023/01/25 07:13:44;;;;;;;9.70;6.07;;;19.40;53.90;;;;;;5067259;28;20115;-72
2023/01/25 07:16:13;;;;;;;9.98;6.53;;;19.40;53.80;;;;;;5049587;28;20627;-72
2023/01/25 07:18:39;;;;;;;8.68;6.05;;;19.40;53.90;;;;;;5087878;23;20083;-72
2023/01/25 07:21:23;;;;;;;9.05;6.40;;;19.40;53.80;;;;;;5079698;28;20038;-72
2023/01/25 07:23:50;;;;;;;10.55;6.22;;;19.40;53.80;;;;;;5079168;28;20043;-71
2023/01/25 07:26:24;;;;;;;10.10;6.22;;;19.40;53.90;;;;;;5089272;28;20081;-71
2023/01/25 07:28:51;;;;;;;9.48;6.47;;;19.40;53.80;;;;;;5089480;28;20035;-72
2023/01/25 07:31:18;;;;;;;9.93;6.10;;;19.40;54.10;;;;;;5084128;28;20021;-72
2023/01/25 07:33:52;;;;;;;9.93;6.43;;;19.40;53.80;;;;;;5070307;28;20035;-72
2023/01/25 07:36:18;;;;;;;9.80;6.35;;;19.40;53.80;;;;;;5070547;28;20025;-72
2023/01/25 07:38:45;;;;;;;11.10;6.82;;;19.40;53.70;;;;;;5069206;28;20647;-72
2023/01/25 07:41:11;;;;;;;10.65;6.80;;;19.40;53.90;;;;;;5070519;28;20495;-72
2023/01/25 07:43:38;;;;;;;9.63;6.47;;;19.40;53.80;;;;;;5070151;28;20052;-71
2023/01/25 07:46:06;;;;;;;11.68;6.38;;;19.40;53.70;;;;;;5068276;28;20035;-72
2023/01/25 07:48:32;;;;;;;11.55;7.30;;;19.40;53.70;;;;;;5068541;28;20066;-72
2023/01/25 07:51:21;;;;;;;8.88;6.35;;;19.40;53.70;;;;;;5070481;28;20025;-72
2023/01/25 07:53:55;;;;;;;8.73;6.13;;;19.40;53.80;;;;;;5068243;28;20095;-71
2023/01/25 07:56:22;;;;;;;10.00;6.35;;;19.40;53.80;;;;;;5067987;28;20034;-72
2023/01/25 07:58:48;;;;;;;11.73;6.30;;;19.40;53.70;;;;;;5070359;28;20374;-72
2023/01/25 08:01:17;;;;;;;11.35;7.05;;;19.40;53.70;;;;;;5069102;28;20024;-72
2023/01/25 08:03:44;;;;;;;10.57;6.95;;;19.40;53.80;;;;;;5069547;28;20086;-72
2023/01/25 08:06:10;;;;;;;10.48;6.00;;;19.40;53.80;;;;;;5051633;28;20506;-72
2023/01/25 08:08:40;;;;;;;10.85;6.53;;;19.40;53.80;;;;;;5068930;28;20029;-72
2023/01/25 08:11:09;;;;;;;9.32;6.65;;;19.40;53.70;;;;;;5067166;28;20020;-72
2023/01/25 08:13:35;;;;;;;9.30;5.93;;;19.40;53.70;;;;;;5066821;28;20071;-71
2023/01/25 08:16:01;;;;;;;9.15;6.30;;;19.40;53.80;;;;;;5068324;28;20033;-72
2023/01/25 08:18:27;;;;;;;9.82;6.00;;;19.40;53.70;;;;;;5069609;28;20032;-72
2023/01/25 08:20:52;;;;;;;16.85;5.75;;;19.40;53.80;;;;;;5068954;28;20025;-73
2023/01/25 08:23:19;;;;;;;15.13;6.00;;;19.40;57.10;;;;;;5068589;28;20667;-74
2023/01/25 08:25:45;;;;;;;11.98;5.57;;;19.40;55.30;;;;;;5069679;28;20025;-73
2023/01/25 08:28:11;;;;;;;10.85;5.82;;;19.40;56.50;;;;;;5068377;28;20031;-73
2023/01/25 08:30:37;;;;;;;8.65;5.38;;;19.50;57.20;;;;;;5070012;28;20025;-73
2023/01/25 08:33:02;;;;;;;10.38;5.55;;;19.50;57.50;;;;;;5069451;28;20027;-73
2023/01/25 08:35:28;;;;;;;15.68;6.00;;;19.50;57.00;;;;;;5068553;28;20049;-74
2023/01/25 08:37:54;;;;;;;11.52;5.82;;;19.50;57.60;;;;;;5067479;28;20593;-74
2023/01/25 08:40:20;;;;;;;17.50;5.70;;;19.50;57.20;;;;;;5068269;28;20360;-74
2023/01/25 08:42:45;;;;;;;12.65;5.85;;;19.50;57.50;;;;;;5068756;28;20060;-74
2023/01/25 08:45:11;;;;;;;15.75;7.20;;;19.50;56.70;;;;;;5069188;28;20025;-73
2023/01/25 08:47:37;;;;;;;15.23;8.00;;;19.50;56.80;;;;;;5069265;28;20059;-73
2023/01/25 08:50:03;;;;;;;13.70;7.43;;;19.40;56.50;;;;;;5064562;28;20024;-73
2023/01/25 08:52:29;;;;;;;16.75;7.63;;;19.50;58.30;;;;;;5067460;28;20029;-73
2023/01/25 08:54:54;;;;;;;20.25;8.23;;;19.40;57.80;;;;;;5068215;28;20173;-74
2023/01/25 08:57:20;;;;;;;16.05;7.13;;;19.50;57.40;;;;;;5067515;28;20024;-74
2023/01/25 08:59:46;;;;;;;13.65;7.60;;;19.50;57.20;;;;;;5069510;28;20362;-74
2023/01/25 09:02:12;;;;;;;15.63;7.82;;;19.40;56.80;;;;;;5067890;28;20059;-74
2023/01/25 09:04:38;;;;;;;14.73;8.02;;;19.50;56.90;;;;;;5069080;28;20024;-74
2023/01/25 09:07:04;;;;;;;12.70;7.90;;;19.50;58.10;;;;;;5067257;28;20135;-74
2023/01/25 09:09:30;;;;;;;18.48;8.20;;;19.50;57.80;;;;;;5069555;28;20472;-86
2023/01/25 09:11:56;;;;;;;29.40;12.05;;;19.50;56.50;;;;;;5051753;28;20096;-84
2023/01/25 09:14:22;;;;;;;28.98;14.60;;;19.00;49.50;;;;;;5051209;28;20046;-84
2023/01/25 09:16:48;;;;;;;21.65;13.52;;;18.60;44.10;;;;;;5068618;28;20056;-73
2023/01/25 09:19:14;;;;;;;24.15;13.70;;;18.30;44.40;;;;;;5069077;28;20500;-72
2023/01/25 09:21:40;;;;;;;19.55;12.70;;;18.50;47.10;;;;;;5067511;28;20062;-73
2023/01/25 09:24:06;;;;;;;20.10;11.65;;;18.70;47.80;;;;;;5067605;28;20039;-73
2023/01/25 09:26:38;;;;;;;23.88;13.00;;;18.80;49.40;;;;;;5068535;28;20460;-74
2023/01/25 09:29:06;;;;;;;23.13;13.55;;;19.00;49.90;;;;;;5067479;28;20042;-74
2023/01/25 09:31:32;;;;;;;18.50;11.77;;;19.10;50.60;;;;;;5067078;28;20035;-73
2023/01/25 09:34:07;;;;;;;28.33;11.60;;;19.20;50.50;;;;;;5066893;28;20027;-74
2023/01/25 09:36:33;;;;;;;19.25;12.43;;;19.20;49.50;;;;;;5067663;28;20488;-74
2023/01/25 09:38:59;;;;;;;20.17;12.65;;;19.30;49.60;;;;;;5067248;28;20036;-74
2023/01/25 09:41:50;;;;;;;22.13;12.90;;;19.40;49.70;;;;;;5068915;28;20036;-74
2023/01/25 09:44:36;;;;;;;38.38;13.63;;;19.40;49.90;;;;;;5068563;28;20029;-74
2023/01/25 09:47:28;;;;;;;18.85;11.93;;;19.50;50.20;;;;;;5068059;28;20485;-74
2023/01/25 09:50:03;;;;;;;18.85;10.93;;;19.50;50.60;;;;;;5068129;28;20048;-74
2023/01/25 09:52:55;;;;;;;18.88;11.02;;;19.60;50.90;;;;;;5067489;28;20044;-74
2023/01/25 09:55:25;;;;;;;17.90;11.75;;;19.60;51.20;;;;;;5040493;28;20489;-74
2023/01/25 09:57:52;;;;;;;;;;;19.60;51.30;;;;;;5067476;28;20539;-74
2023/01/25 10:00:32;;;;;;;17.13;11.18;;;19.60;51.50;;;;;;5068273;28;19908;-74
2023/01/25 10:03:04;;;;;;;18.05;10.98;;;19.60;51.70;;;;;;5068650;28;20040;-74
2023/01/25 10:05:36;;;;;;;19.48;10.52;;;19.60;51.90;;;;;;5067992;28;20033;-74
2023/01/25 10:08:43;;;;;;;20.00;10.82;;;19.60;52.10;;;;;;5068019;28;20021;-74
2023/01/25 10:11:25;;;;;;;16.15;9.70;;;19.60;52.30;;;;;;5003343;28;20098;-73
2023/01/25 10:13:52;;;;;;;17.27;10.65;;;19.60;52.50;;;;;;5068423;28;20082;-74
2023/01/25 10:16:37;;;;;;;15.70;9.15;;;19.70;52.60;;;;;;5068546;28;20036;-73
2023/01/25 10:19:40;;;;;;;17.38;9.55;;;19.70;52.60;;;;;;5072105;28;20373;-73
2023/01/25 10:22:14;;;;;;;17.90;9.75;;;19.70;52.70;;;;;;5070876;28;20039;-73
2023/01/25 10:25:02;;;;;;;17.55;10.27;;;19.70;52.90;;;;;;5067498;28;20032;-73
2023/01/25 10:27:45;;;;;;;17.38;10.25;;;19.70;52.90;;;;;;5067702;28;20617;-73
2023/01/25 10:30:26;;;;;;;15.80;9.70;;;19.70;53.00;;;;;;5070516;28;20032;-73
2023/01/25 10:32:56;;;;;;;18.08;9.98;;;19.70;53.50;;;;;;5070331;28;20427;-73
2023/01/25 10:35:29;;;;;;;18.35;10.15;;;19.70;54.20;;;;;;5070149;28;20032;-73
2023/01/25 10:38:00;;;;;;;20.85;11.45;;;19.70;54.80;;;;;;5069534;28;20741;-73
2023/01/25 10:40:34;;;;;;;15.80;9.73;;;19.80;55.40;;;;;;5070231;28;20029;-73
2023/01/25 10:43:05;;;;;;;15.70;9.88;;;19.80;55.40;;;;;;5069862;28;20032;-72
2023/01/25 10:45:30;;;;;;;19.42;10.68;;;19.80;55.10;;;;;;5068234;28;20056;-73
2023/01/25 10:48:02;;;;;;;22.45;10.30;;;19.80;55.20;;;;;;5070032;28;20052;-74
2023/01/25 10:50:45;;;;;;;21.08;9.02;;;19.80;55.20;;;;;;5069928;28;20089;-74
2023/01/25 10:53:33;;;;;;;16.10;9.70;;;19.70;55.10;;;;;;5070124;28;20063;-74
2023/01/25 10:56:40;;;;;;;17.45;9.55;;;19.70;55.20;;;;;;5069658;28;20221;-73
2023/01/25 10:59:26;;;;;;;17.02;9.35;;;19.70;55.20;;;;;;5067332;28;20036;-73
2023/01/25 11:01:53;;;;;;;15.52;9.45;;;19.70;55.40;;;;;;5069788;28;20040;-73
2023/01/25 11:04:46;;;;;;;16.55;9.70;;;19.70;54.80;;;;;;5070153;28;20675;-73
2023/01/25 11:07:26;;;;;;;15.57;9.52;;;19.70;55.30;;;;;;5067862;28;20050;-73
2023/01/25 11:09:52;;;;;;;17.10;9.65;;;19.70;55.40;;;;;;5069559;28;20031;-74
2023/01/25 11:12:19;;;;;;;20.92;9.48;;;19.70;55.40;;;;;;5070264;28;20023;-74
2023/01/25 11:14:49;;;;;;;18.88;9.80;;;19.70;55.20;;;;;;5068389;28;20040;-72
2023/01/25 11:17:33;;;;;;;17.63;10.30;;;19.70;55.30;;;;;;5070716;28;20061;-72
2023/01/25 11:20:14;;;;;;;19.95;10.90;;;19.60;55.10;;;;;;5068273;28;20226;-72
2023/01/25 11:22:52;;;;;;;21.33;11.63;;;19.70;55.00;;;;;;5070979;28;20028;-72
2023/01/25 11:25:24;;;;;;;17.73;11.45;;;19.70;55.00;;;;;;5069065;28;20029;-72
2023/01/25 11:27:50;;;;;;;22.83;12.30;;;19.70;55.00;;;;;;5068124;28;20392;-72
2023/01/25 11:30:20;;;;;;;19.20;10.40;;;19.70;55.10;;;;;;5069204;28;20033;-72
2023/01/25 11:32:46;;;;;;;19.30;10.65;;;19.70;55.40;;;;;;5077802;28;20027;-72
2023/01/25 11:35:14;;;;;;;18.45;11.25;;;19.70;55.30;;;;;;5091121;28;20032;-72
2023/01/25 11:38:13;;;;;;;21.95;11.00;;;19.70;55.40;;;;;;5090662;28;20038;-72
2023/01/25 11:40:57;;;;;;;23.37;11.30;;;19.70;55.80;;;;;;5091643;28;20038;-72
2023/01/25 11:43:48;;;;;;;34.22;12.15;;;19.70;56.00;;;;;;5090223;28;20043;-73
2023/01/25 11:46:32;;;;;;;29.65;11.27;;;19.70;56.80;;;;;;5090590;28;20028;-72
2023/01/25 11:49:18;;;;;;;30.08;11.70;;;19.70;56.70;;;;;;5090364;28;20545;-73
2023/01/25 11:52:02;;;;;;;28.50;11.68;;;19.70;57.00;;;;;;5072871;28;20020;-72
2023/01/25 11:54:54;;;;;;;24.05;10.75;;;19.70;56.80;;;;;;5090457;28;20074;-72
2023/01/25 11:57:30;;;;;;;46.35;11.95;;;19.70;56.70;;;;;;5090543;28;20021;-72
2023/01/25 12:00:20;;;;;;;20.73;10.32;;;19.70;56.70;;;;;;5089544;28;20036;-72
2023/01/25 12:02:48;;;;;;;20.77;11.30;;;19.70;57.00;;;;;;5090212;28;20035;-72
2023/01/25 12:05:37;;;;;;;17.80;10.30;;;19.80;57.10;;;;;;5090650;28;20373;-72
2023/01/25 12:08:43;;;;;;;21.90;10.17;;;19.80;57.20;;;;;;5089755;28;20131;-73
2023/01/25 12:11:15;;;;;;;20.40;10.35;;;19.70;56.80;;;;;;5089055;28;20807;-73
2023/01/25 12:14:08;;;;;;;30.10;10.77;;;19.80;57.00;;;;;;5089914;28;20109;-73
2023/01/25 12:16:43;;;;;;;21.67;9.88;;;19.80;57.50;;;;;;5089708;28;20058;-73
2023/01/25 12:19:31;;;;;;;22.77;10.57;;;19.80;57.70;;;;;;5088687;28;20035;-73
2023/01/25 12:22:05;;;;;;;20.00;10.07;;;19.80;57.40;;;;;;5088953;28;20028;-72
2023/01/25 12:24:53;;;;;;;21.00;9.82;;;19.80;57.50;;;;;;5071606;28;20039;-73
2023/01/25 12:28:05;;;;;;;20.02;10.70;;;19.80;57.50;;;;;;5088420;28;20036;-73
2023/01/25 12:30:39;;;;;;;18.25;10.68;;;19.80;57.20;;;;;;5011892;28;20045;-72
2023/01/25 12:33:11;;;;;;;21.60;10.52;;;19.80;57.00;;;;;;5027069;28;20033;-73
2023/01/25 12:36:01;;;;;;;22.52;10.65;;;19.80;56.70;;;;;;5065744;28;20036;-73
2023/01/25 12:38:39;;;;;;;18.00;10.32;;;19.80;56.30;;;;;;5062148;28;20081;-75
2023/01/25 12:41:19;;;;;;;18.80;10.50;;;19.80;57.00;;;;;;5072309;28;20028;-73
2023/01/25 12:43:47;;;;;;;17.83;9.93;;;19.80;57.30;;;;;;5089564;28;20400;-73
2023/01/25 12:46:20;;;;;;;18.92;10.23;;;19.80;57.00;;;;;;5089153;28;20264;-73
2023/01/25 12:48:51;;;;;;;18.42;10.75;;;19.80;57.10;;;;;;5087777;28;20127;-73
2023/01/25 12:51:19;;;;;;;18.67;10.18;;;19.80;57.50;;;;;;5088566;28;20486;-73
2023/01/25 12:53:46;;;;;;;17.85;10.13;;;19.80;57.00;;;;;;5089033;28;20107;-73
2023/01/25 12:56:35;;;;;;;19.52;10.60;;;19.70;56.70;;;;;;5054532;28;20032;-73